sensor_id;sensor_type;location;lat;lon;timestamp;P1;durP1;ratioP1;P2;durP2;ratioP2
61702;SDS011;47622;47.726;3.298;2024-02-21T00:00:46;13.13;;;8.07;;
61702;SDS011;47622;47.726;3.298;2024-02-21T00:03:12;13.30;;;8.07;;
61702;SDS011;47622;47.726;3.298;2024-02-21T00:05:38;16.65;;;8.40;;
61702;SDS011;47622;47.726;3.298;2024-02-21T00:08:03;17.30;;;7.60;;
61702;SDS011;47622;47.726;3.298;2024-02-21T00:10:30;12.27;;;6.47;;
61702;SDS011;47622;47.726;3.298;2024-02-21T00:12:59;11.35;;;7.00;;
61702;SDS011;47622;47.726;3.298;2024-02-21T00:15:25;14.40;;;7.15;;
61702;SDS011;47622;47.726;3.298;2024-02-21T00:17:50;16.08;;;7.65;;
61702;SDS011;47622;47.726;3.298;2024-02-21T00:20:16;18.85;;;8.40;;
61702;SDS011;47622;47.726;3.298;2024-02-21T00:22:42;15.10;;;7.50;;
61702;SDS011;47622;47.726;3.298;2024-02-21T00:25:08;17.48;;;8.63;;
61702;SDS011;47622;47.726;3.298;2024-02-21T00:27:34;13.48;;;7.57;;
61702;SDS011;47622;47.726;3.298;2024-02-21T00:29:59;18.63;;;9.07;;
61702;SDS011;47622;47.726;3.298;2024-02-21T00:32:25;18.42;;;8.85;;
61702;SDS011;47622;47.726;3.298;2024-02-21T00:34:50;17.73;;;8.68;;
61702;SDS011;47622;47.726;3.298;2024-02-21T00:37:16;17.45;;;9.45;;
61702;SDS011;47622;47.726;3.298;2024-02-21T00:39:41;19.80;;;8.93;;
61702;SDS011;47622;47.726;3.298;2024-02-21T00:42:07;17.15;;;8.95;;
61702;SDS011;47622;47.726;3.298;2024-02-21T00:44:33;21.95;;;9.82;;
61702;SDS011;47622;47.726;3.298;2024-02-21T00:46:59;16.15;;;9.15;;
61702;SDS011;47622;47.726;3.298;2024-02-21T00:49:24;21.58;;;8.25;;
61702;SDS011;47622;47.726;3.298;2024-02-21T00:51:50;18.60;;;9.48;;
61702;SDS011;47622;47.726;3.298;2024-02-21T00:54:16;20.83;;;9.90;;
61702;SDS011;47622;47.726;3.298;2024-02-21T00:56:42;17.23;;;8.30;;
61702;SDS011;47622;47.726;3.298;2024-02-21T00:59:07;22.48;;;9.52;;
61702;SDS011;47622;47.726;3.298;2024-02-21T01:01:33;15.13;;;8.00;;
61702;SDS011;47622;47.726;3.298;2024-02-21T01:03:59;18.00;;;8.43;;
61702;SDS011;47622;47.726;3.298;2024-02-21T01:06:25;18.92;;;8.80;;
61702;SDS011;47622;47.726;3.298;2024-02-21T01:08:50;14.60;;;7.85;;
61702;SDS011;47622;47.726;3.298;2024-02-21T01:11:16;27.67;;;10.15;;
61702;SDS011;47622;47.726;3.298;2024-02-21T01:13:41;17.38;;;9.48;;
61702;SDS011;47622;47.726;3.298;2024-02-21T01:16:07;19.90;;;8.52;;
61702;SDS011;47622;47.726;3.298;2024-02-21T01:18:33;21.52;;;9.43;;
61702;SDS011;47622;47.726;3.298;2024-02-21T01:20:59;17.77;;;7.97;;
61702;SDS011;47622;47.726;3.298;2024-02-21T01:23:25;16.63;;;8.40;;
61702;SDS011;47622;47.726;3.298;2024-02-21T01:25:50;19.83;;;10.38;;
61702;SDS011;47622;47.726;3.298;2024-02-21T01:28:16;26.13;;;9.63;;
61702;SDS011;47622;47.726;3.298;2024-02-21T01:30:43;22.13;;;9.07;;
61702;SDS011;47622;47.726;3.298;2024-02-21T01:33:08;21.85;;;8.68;;
61702;SDS011;47622;47.726;3.298;2024-02-21T01:35:34;15.65;;;8.82;;
61702;SDS011;47622;47.726;3.298;2024-02-21T01:38:01;19.73;;;8.57;;
61702;SDS011;47622;47.726;3.298;2024-02-21T01:40:26;20.38;;;9.70;;
61702;SDS011;47622;47.726;3.298;2024-02-21T01:42:54;22.52;;;9.18;;
61702;SDS011;47622;47.726;3.298;2024-02-21T01:45:20;15.35;;;8.70;;
61702;SDS011;47622;47.726;3.298;2024-02-21T01:47:46;19.13;;;8.52;;
61702;SDS011;47622;47.726;3.298;2024-02-21T01:50:13;17.92;;;7.82;;
61702;SDS011;47622;47.726;3.298;2024-02-21T01:52:40;17.02;;;8.98;;
61702;SDS011;47622;47.726;3.298;2024-02-21T01:55:06;16.35;;;8.48;;
61702;SDS011;47622;47.726;3.298;2024-02-21T01:57:32;13.85;;;8.07;;
61702;SDS011;47622;47.726;3.298;2024-02-21T01:59:58;13.02;;;7.90;;
61702;SDS011;47622;47.726;3.298;2024-02-21T02:02:25;13.23;;;7.82;;
61702;SDS011;47622;47.726;3.298;2024-02-21T02:04:51;16.85;;;9.13;;
61702;SDS011;47622;47.726;3.298;2024-02-21T02:07:17;17.52;;;8.35;;
61702;SDS011;47622;47.726;3.298;2024-02-21T02:09:43;21.00;;;8.15;;
61702;SDS011;47622;47.726;3.298;2024-02-21T02:12:08;20.50;;;9.52;;
61702;SDS011;47622;47.726;3.298;2024-02-21T02:14:34;13.43;;;7.63;;
61702;SDS011;47622;47.726;3.298;2024-02-21T02:17:00;15.30;;;7.68;;
61702;SDS011;47622;47.726;3.298;2024-02-21T02:19:25;16.10;;;8.02;;
61702;SDS011;47622;47.726;3.298;2024-02-21T02:21:52;15.45;;;7.93;;
61702;SDS011;47622;47.726;3.298;2024-02-21T02:24:22;15.93;;;7.03;;
61702;SDS011;47622;47.726;3.298;2024-02-21T02:26:49;16.75;;;8.30;;
61702;SDS011;47622;47.726;3.298;2024-02-21T02:29:15;14.27;;;6.97;;
61702;SDS011;47622;47.726;3.298;2024-02-21T02:31:41;12.75;;;6.63;;
61702;SDS011;47622;47.726;3.298;2024-02-21T02:34:07;11.23;;;6.45;;
61702;SDS011;47622;47.726;3.298;2024-02-21T02:36:33;14.63;;;6.65;;
61702;SDS011;47622;47.726;3.298;2024-02-21T02:38:59;17.13;;;7.13;;
61702;SDS011;47622;47.726;3.298;2024-02-21T02:41:24;13.10;;;6.53;;
61702;SDS011;47622;47.726;3.298;2024-02-21T02:43:50;19.25;;;9.73;;
61702;SDS011;47622;47.726;3.298;2024-02-21T02:46:16;14.52;;;7.28;;
61702;SDS011;47622;47.726;3.298;2024-02-21T02:48:41;15.05;;;7.22;;
61702;SDS011;47622;47.726;3.298;2024-02-21T02:51:07;15.80;;;6.88;;
61702;SDS011;47622;47.726;3.298;2024-02-21T02:53:32;21.95;;;7.22;;
61702;SDS011;47622;47.726;3.298;2024-02-21T02:56:01;13.35;;;6.60;;
61702;SDS011;47622;47.726;3.298;2024-02-21T02:58:27;13.57;;;6.28;;
61702;SDS011;47622;47.726;3.298;2024-02-21T03:00:53;15.65;;;6.78;;
61702;SDS011;47622;47.726;3.298;2024-02-21T03:03:19;17.90;;;8.50;;
61702;SDS011;47622;47.726;3.298;2024-02-21T03:05:45;16.23;;;7.05;;
61702;SDS011;47622;47.726;3.298;2024-02-21T03:08:11;12.18;;;7.32;;
61702;SDS011;47622;47.726;3.298;2024-02-21T03:10:36;15.27;;;7.25;;
61702;SDS011;47622;47.726;3.298;2024-02-21T03:13:02;22.25;;;8.05;;
61702;SDS011;47622;47.726;3.298;2024-02-21T03:15:28;16.08;;;8.07;;
61702;SDS011;47622;47.726;3.298;2024-02-21T03:17:54;16.23;;;6.78;;
61702;SDS011;47622;47.726;3.298;2024-02-21T03:20:19;14.82;;;6.93;;
61702;SDS011;47622;47.726;3.298;2024-02-21T03:22:45;14.68;;;7.43;;
61702;SDS011;47622;47.726;3.298;2024-02-21T03:25:11;17.13;;;7.15;;
61702;SDS011;47622;47.726;3.298;2024-02-21T03:27:38;18.33;;;7.45;;
61702;SDS011;47622;47.726;3.298;2024-02-21T03:30:04;15.00;;;6.85;;
61702;SDS011;47622;47.726;3.298;2024-02-21T03:32:30;13.77;;;7.22;;
61702;SDS011;47622;47.726;3.298;2024-02-21T03:34:56;17.27;;;7.55;;
61702;SDS011;47622;47.726;3.298;2024-02-21T03:37:21;18.17;;;8.13;;
61702;SDS011;47622;47.726;3.298;2024-02-21T03:39:47;14.52;;;7.35;;
61702;SDS011;47622;47.726;3.298;2024-02-21T03:42:14;13.45;;;6.45;;
61702;SDS011;47622;47.726;3.298;2024-02-21T03:44:40;15.30;;;7.00;;
61702;SDS011;47622;47.726;3.298;2024-02-21T03:47:05;13.43;;;6.75;;
61702;SDS011;47622;47.726;3.298;2024-02-21T03:49:31;18.73;;;7.78;;
61702;SDS011;47622;47.726;3.298;2024-02-21T03:51:57;12.30;;;6.80;;
61702;SDS011;47622;47.726;3.298;2024-02-21T03:54:22;17.08;;;7.20;;
61702;SDS011;47622;47.726;3.298;2024-02-21T03:56:48;16.25;;;7.05;;
61702;SDS011;47622;47.726;3.298;2024-02-21T03:59:14;16.40;;;6.97;;
61702;SDS011;47622;47.726;3.298;2024-02-21T04:01:39;17.00;;;8.23;;
61702;SDS011;47622;47.726;3.298;2024-02-21T04:04:05;12.43;;;6.85;;
61702;SDS011;47622;47.726;3.298;2024-02-21T04:06:30;14.73;;;7.38;;
61702;SDS011;47622;47.726;3.298;2024-02-21T04:08:56;14.32;;;7.72;;
61702;SDS011;47622;47.726;3.298;2024-02-21T04:11:22;14.25;;;6.80;;
61702;SDS011;47622;47.726;3.298;2024-02-21T04:13:48;15.82;;;6.90;;
61702;SDS011;47622;47.726;3.298;2024-02-21T04:16:15;13.30;;;7.05;;
61702;SDS011;47622;47.726;3.298;2024-02-21T04:18:41;13.82;;;6.88;;
61702;SDS011;47622;47.726;3.298;2024-02-21T04:21:08;15.02;;;6.90;;
61702;SDS011;47622;47.726;3.298;2024-02-21T04:23:35;12.25;;;6.95;;
61702;SDS011;47622;47.726;3.298;2024-02-21T04:26:00;17.05;;;6.78;;
61702;SDS011;47622;47.726;3.298;2024-02-21T04:28:26;14.80;;;6.28;;
61702;SDS011;47622;47.726;3.298;2024-02-21T04:30:52;13.88;;;7.25;;
61702;SDS011;47622;47.726;3.298;2024-02-21T04:33:18;16.10;;;8.00;;
61702;SDS011;47622;47.726;3.298;2024-02-21T04:35:43;13.63;;;7.28;;
61702;SDS011;47622;47.726;3.298;2024-02-21T04:38:09;15.60;;;5.68;;
61702;SDS011;47622;47.726;3.298;2024-02-21T04:40:36;12.52;;;6.22;;
61702;SDS011;47622;47.726;3.298;2024-02-21T04:43:01;12.20;;;6.30;;
61702;SDS011;47622;47.726;3.298;2024-02-21T04:45:27;15.80;;;7.30;;
61702;SDS011;47622;47.726;3.298;2024-02-21T04:47:53;14.00;;;6.60;;
61702;SDS011;47622;47.726;3.298;2024-02-21T04:50:19;14.20;;;6.60;;
61702;SDS011;47622;47.726;3.298;2024-02-21T04:52:44;16.00;;;7.05;;
61702;SDS011;47622;47.726;3.298;2024-02-21T04:55:10;14.35;;;7.20;;
61702;SDS011;47622;47.726;3.298;2024-02-21T04:57:35;15.68;;;6.65;;
61702;SDS011;47622;47.726;3.298;2024-02-21T05:00:01;13.18;;;6.28;;
61702;SDS011;47622;47.726;3.298;2024-02-21T05:02:28;13.10;;;6.30;;
61702;SDS011;47622;47.726;3.298;2024-02-21T05:04:54;14.60;;;7.03;;
61702;SDS011;47622;47.726;3.298;2024-02-21T05:07:20;12.10;;;6.53;;
61702;SDS011;47622;47.726;3.298;2024-02-21T05:09:46;14.02;;;6.60;;
61702;SDS011;47622;47.726;3.298;2024-02-21T05:12:11;13.98;;;5.90;;
61702;SDS011;47622;47.726;3.298;2024-02-21T05:14:37;11.32;;;6.00;;
61702;SDS011;47622;47.726;3.298;2024-02-21T05:17:03;9.48;;;5.72;;
61702;SDS011;47622;47.726;3.298;2024-02-21T05:19:29;12.23;;;5.57;;
61702;SDS011;47622;47.726;3.298;2024-02-21T05:21:55;16.50;;;5.53;;
61702;SDS011;47622;47.726;3.298;2024-02-21T05:24:21;10.85;;;5.75;;
61702;SDS011;47622;47.726;3.298;2024-02-21T05:26:46;11.50;;;5.82;;
61702;SDS011;47622;47.726;3.298;2024-02-21T05:29:12;10.50;;;6.25;;
61702;SDS011;47622;47.726;3.298;2024-02-21T05:34:15;15.75;;;7.07;;
61702;SDS011;47622;47.726;3.298;2024-02-21T05:36:41;14.20;;;5.57;;
61702;SDS011;47622;47.726;3.298;2024-02-21T05:39:07;13.43;;;6.28;;
61702;SDS011;47622;47.726;3.298;2024-02-21T05:41:32;13.00;;;5.72;;
61702;SDS011;47622;47.726;3.298;2024-02-21T05:43:58;22.10;;;7.68;;
61702;SDS011;47622;47.726;3.298;2024-02-21T05:46:23;14.75;;;5.72;;
61702;SDS011;47622;47.726;3.298;2024-02-21T05:48:49;15.68;;;6.90;;
61702;SDS011;47622;47.726;3.298;2024-02-21T05:51:15;16.27;;;7.13;;
61702;SDS011;47622;47.726;3.298;2024-02-21T05:53:40;10.25;;;6.20;;
61702;SDS011;47622;47.726;3.298;2024-02-21T05:56:12;14.50;;;5.85;;
61702;SDS011;47622;47.726;3.298;2024-02-21T05:58:39;14.00;;;6.75;;
61702;SDS011;47622;47.726;3.298;2024-02-21T06:01:05;14.40;;;7.13;;
61702;SDS011;47622;47.726;3.298;2024-02-21T06:03:34;15.85;;;5.72;;
61702;SDS011;47622;47.726;3.298;2024-02-21T06:06:01;10.57;;;5.75;;
61702;SDS011;47622;47.726;3.298;2024-02-21T06:08:27;16.90;;;5.93;;
61702;SDS011;47622;47.726;3.298;2024-02-21T06:10:52;21.20;;;7.22;;
61702;SDS011;47622;47.726;3.298;2024-02-21T06:13:20;15.80;;;6.20;;
61702;SDS011;47622;47.726;3.298;2024-02-21T06:15:49;14.77;;;6.80;;
61702;SDS011;47622;47.726;3.298;2024-02-21T06:18:16;12.05;;;7.20;;
61702;SDS011;47622;47.726;3.298;2024-02-21T06:20:42;15.75;;;7.55;;
61702;SDS011;47622;47.726;3.298;2024-02-21T06:23:08;12.93;;;6.53;;
61702;SDS011;47622;47.726;3.298;2024-02-21T06:25:34;13.25;;;6.85;;
61702;SDS011;47622;47.726;3.298;2024-02-21T06:27:59;16.60;;;6.40;;
61702;SDS011;47622;47.726;3.298;2024-02-21T06:30:25;16.83;;;6.88;;
61702;SDS011;47622;47.726;3.298;2024-02-21T06:32:51;12.75;;;7.03;;
61702;SDS011;47622;47.726;3.298;2024-02-21T06:35:17;18.92;;;6.75;;
61702;SDS011;47622;47.726;3.298;2024-02-21T06:37:43;12.82;;;6.25;;
61702;SDS011;47622;47.726;3.298;2024-02-21T06:40:10;11.50;;;5.78;;
61702;SDS011;47622;47.726;3.298;2024-02-21T06:42:36;9.77;;;5.38;;
61702;SDS011;47622;47.726;3.298;2024-02-21T06:45:01;14.35;;;6.35;;
61702;SDS011;47622;47.726;3.298;2024-02-21T06:47:27;13.27;;;5.93;;
61702;SDS011;47622;47.726;3.298;2024-02-21T06:49:53;11.57;;;5.38;;
61702;SDS011;47622;47.726;3.298;2024-02-21T06:52:19;9.18;;;5.72;;
61702;SDS011;47622;47.726;3.298;2024-02-21T06:54:48;15.35;;;6.15;;
61702;SDS011;47622;47.726;3.298;2024-02-21T06:57:14;14.40;;;6.32;;
61702;SDS011;47622;47.726;3.298;2024-02-21T06:59:40;11.52;;;5.32;;
61702;SDS011;47622;47.726;3.298;2024-02-21T07:02:06;13.43;;;5.97;;
61702;SDS011;47622;47.726;3.298;2024-02-21T07:04:32;11.77;;;5.65;;
61702;SDS011;47622;47.726;3.298;2024-02-21T07:06:58;11.63;;;5.53;;
61702;SDS011;47622;47.726;3.298;2024-02-21T07:09:24;10.63;;;5.82;;
61702;SDS011;47622;47.726;3.298;2024-02-21T07:11:50;9.10;;;5.35;;
61702;SDS011;47622;47.726;3.298;2024-02-21T07:14:15;13.10;;;5.88;;
61702;SDS011;47622;47.726;3.298;2024-02-21T07:16:41;12.57;;;5.82;;
61702;SDS011;47622;47.726;3.298;2024-02-21T07:19:07;13.07;;;5.93;;
61702;SDS011;47622;47.726;3.298;2024-02-21T07:21:32;14.25;;;5.53;;
61702;SDS011;47622;47.726;3.298;2024-02-21T07:23:58;14.07;;;5.20;;
61702;SDS011;47622;47.726;3.298;2024-02-21T07:26:23;12.43;;;5.43;;
61702;SDS011;47622;47.726;3.298;2024-02-21T07:28:49;8.40;;;4.75;;
61702;SDS011;47622;47.726;3.298;2024-02-21T07:31:16;11.07;;;5.65;;
61702;SDS011;47622;47.726;3.298;2024-02-21T07:33:41;15.30;;;4.70;;
61702;SDS011;47622;47.726;3.298;2024-02-21T07:36:07;9.82;;;4.57;;
61702;SDS011;47622;47.726;3.298;2024-02-21T07:38:35;17.50;;;5.68;;
61702;SDS011;47622;47.726;3.298;2024-02-21T07:41:00;13.52;;;5.68;;
61702;SDS011;47622;47.726;3.298;2024-02-21T07:43:26;10.95;;;5.15;;
61702;SDS011;47622;47.726;3.298;2024-02-21T07:45:52;12.23;;;5.78;;
61702;SDS011;47622;47.726;3.298;2024-02-21T07:48:21;11.20;;;5.25;;
61702;SDS011;47622;47.726;3.298;2024-02-21T07:50:51;10.50;;;5.75;;
61702;SDS011;47622;47.726;3.298;2024-02-21T07:53:17;13.32;;;4.88;;
61702;SDS011;47622;47.726;3.298;2024-02-21T07:55:43;8.40;;;4.75;;
61702;SDS011;47622;47.726;3.298;2024-02-21T07:58:08;13.32;;;5.13;;
61702;SDS011;47622;47.726;3.298;2024-02-21T08:00:34;9.02;;;5.82;;
61702;SDS011;47622;47.726;3.298;2024-02-21T08:02:59;10.98;;;5.45;;
61702;SDS011;47622;47.726;3.298;2024-02-21T08:05:25;10.05;;;5.30;;
61702;SDS011;47622;47.726;3.298;2024-02-21T08:07:51;11.93;;;5.10;;
61702;SDS011;47622;47.726;3.298;2024-02-21T08:10:16;15.85;;;4.97;;
61702;SDS011;47622;47.726;3.298;2024-02-21T08:12:42;17.02;;;5.55;;
61702;SDS011;47622;47.726;3.298;2024-02-21T08:15:08;11.93;;;5.97;;
61702;SDS011;47622;47.726;3.298;2024-02-21T08:17:35;13.48;;;5.32;;
61702;SDS011;47622;47.726;3.298;2024-02-21T08:20:02;12.00;;;5.18;;
61702;SDS011;47622;47.726;3.298;2024-02-21T08:22:29;12.40;;;5.57;;
61702;SDS011;47622;47.726;3.298;2024-02-21T08:24:55;11.60;;;5.63;;
61702;SDS011;47622;47.726;3.298;2024-02-21T08:27:20;13.90;;;5.57;;
61702;SDS011;47622;47.726;3.298;2024-02-21T08:29:46;16.67;;;5.90;;
61702;SDS011;47622;47.726;3.298;2024-02-21T08:32:12;14.40;;;5.45;;
61702;SDS011;47622;47.726;3.298;2024-02-21T08:34:37;15.88;;;6.18;;
61702;SDS011;47622;47.726;3.298;2024-02-21T08:37:03;11.60;;;5.63;;
61702;SDS011;47622;47.726;3.298;2024-02-21T08:39:28;10.25;;;5.68;;
61702;SDS011;47622;47.726;3.298;2024-02-21T08:41:55;16.50;;;6.10;;
61702;SDS011;47622;47.726;3.298;2024-02-21T08:44:22;10.68;;;6.40;;
61702;SDS011;47622;47.726;3.298;2024-02-21T08:46:52;13.68;;;6.13;;
61702;SDS011;47622;47.726;3.298;2024-02-21T08:49:18;10.63;;;5.45;;
61702;SDS011;47622;47.726;3.298;2024-02-21T08:51:44;11.13;;;5.40;;
61702;SDS011;47622;47.726;3.298;2024-02-21T08:54:10;15.77;;;6.72;;
61702;SDS011;47622;47.726;3.298;2024-02-21T08:56:36;12.35;;;6.10;;
61702;SDS011;47622;47.726;3.298;2024-02-21T08:59:02;9.38;;;5.50;;
61702;SDS011;47622;47.726;3.298;2024-02-21T09:01:28;11.82;;;5.78;;
61702;SDS011;47622;47.726;3.298;2024-02-21T09:03:54;17.08;;;6.57;;
61702;SDS011;47622;47.726;3.298;2024-02-21T09:06:21;13.65;;;6.30;;
61702;SDS011;47622;47.726;3.298;2024-02-21T09:08:47;11.70;;;5.90;;
61702;SDS011;47622;47.726;3.298;2024-02-21T09:11:13;12.85;;;5.47;;
61702;SDS011;47622;47.726;3.298;2024-02-21T09:13:39;15.38;;;5.95;;
61702;SDS011;47622;47.726;3.298;2024-02-21T09:16:04;9.57;;;6.25;;
61702;SDS011;47622;47.726;3.298;2024-02-21T09:18:32;14.63;;;5.90;;
61702;SDS011;47622;47.726;3.298;2024-02-21T09:20:57;14.55;;;7.22;;
61702;SDS011;47622;47.726;3.298;2024-02-21T09:23:26;19.38;;;6.05;;
61702;SDS011;47622;47.726;3.298;2024-02-21T09:25:52;9.95;;;6.28;;
61702;SDS011;47622;47.726;3.298;2024-02-21T09:28:17;16.70;;;6.72;;
61702;SDS011;47622;47.726;3.298;2024-02-21T09:30:44;12.27;;;6.43;;
61702;SDS011;47622;47.726;3.298;2024-02-21T09:33:10;14.10;;;7.28;;
61702;SDS011;47622;47.726;3.298;2024-02-21T09:35:36;15.00;;;5.97;;
61702;SDS011;47622;47.726;3.298;2024-02-21T09:38:02;14.68;;;6.50;;
61702;SDS011;47622;47.726;3.298;2024-02-21T09:40:28;12.07;;;6.30;;
61702;SDS011;47622;47.726;3.298;2024-02-21T09:43:01;12.45;;;6.07;;
61702;SDS011;47622;47.726;3.298;2024-02-21T09:45:37;14.50;;;6.25;;
61702;SDS011;47622;47.726;3.298;2024-02-21T09:50:40;13.02;;;5.75;;
61702;SDS011;47622;47.726;3.298;2024-02-21T09:53:07;14.07;;;6.65;;
61702;SDS011;47622;47.726;3.298;2024-02-21T09:55:34;14.52;;;6.78;;
61702;SDS011;47622;47.726;3.298;2024-02-21T09:58:05;12.43;;;5.85;;
61702;SDS011;47622;47.726;3.298;2024-02-21T10:00:31;13.50;;;6.50;;
61702;SDS011;47622;47.726;3.298;2024-02-21T10:02:56;19.27;;;6.70;;
61702;SDS011;47622;47.726;3.298;2024-02-21T10:05:23;10.50;;;6.13;;
61702;SDS011;47622;47.726;3.298;2024-02-21T10:07:50;12.18;;;6.15;;
61702;SDS011;47622;47.726;3.298;2024-02-21T10:10:16;12.05;;;7.20;;
61702;SDS011;47622;47.726;3.298;2024-02-21T10:12:52;15.05;;;6.63;;
61702;SDS011;47622;47.726;3.298;2024-02-21T10:15:22;11.45;;;6.22;;
61702;SDS011;47622;47.726;3.298;2024-02-21T10:17:59;10.52;;;5.93;;
61702;SDS011;47622;47.726;3.298;2024-02-21T10:20:26;12.32;;;6.13;;
61702;SDS011;47622;47.726;3.298;2024-02-21T10:23:01;9.90;;;5.97;;
61702;SDS011;47622;47.726;3.298;2024-02-21T10:25:32;11.48;;;5.70;;
61702;SDS011;47622;47.726;3.298;2024-02-21T10:27:58;15.18;;;5.72;;
61702;SDS011;47622;47.726;3.298;2024-02-21T10:30:24;11.13;;;5.97;;
61702;SDS011;47622;47.726;3.298;2024-02-21T10:32:50;9.77;;;5.80;;
61702;SDS011;47622;47.726;3.298;2024-02-21T10:35:27;8.43;;;5.75;;
61702;SDS011;47622;47.726;3.298;2024-02-21T10:37:54;11.43;;;5.18;;
61702;SDS011;47622;47.726;3.298;2024-02-21T10:40:27;9.38;;;5.70;;
61702;SDS011;47622;47.726;3.298;2024-02-21T10:42:58;10.10;;;5.53;;
61702;SDS011;47622;47.726;3.298;2024-02-21T10:45:45;13.95;;;5.10;;
61702;SDS011;47622;47.726;3.298;2024-02-21T10:48:14;10.43;;;5.60;;
61702;SDS011;47622;47.726;3.298;2024-02-21T10:50:45;8.60;;;4.90;;
61702;SDS011;47622;47.726;3.298;2024-02-21T10:53:40;12.90;;;5.63;;
61702;SDS011;47622;47.726;3.298;2024-02-21T10:58:50;13.35;;;5.78;;
61702;SDS011;47622;47.726;3.298;2024-02-21T11:01:17;7.20;;;4.95;;
61702;SDS011;47622;47.726;3.298;2024-02-21T11:03:44;15.73;;;5.88;;
61702;SDS011;47622;47.726;3.298;2024-02-21T11:06:11;10.80;;;4.65;;
61702;SDS011;47622;47.726;3.298;2024-02-21T11:08:38;9.90;;;5.28;;
61702;SDS011;47622;47.726;3.298;2024-02-21T11:11:04;12.48;;;4.93;;
61702;SDS011;47622;47.726;3.298;2024-02-21T11:13:36;9.52;;;4.22;;
61702;SDS011;47622;47.726;3.298;2024-02-21T11:16:09;9.52;;;4.80;;
61702;SDS011;47622;47.726;3.298;2024-02-21T11:18:37;7.47;;;4.53;;
61702;SDS011;47622;47.726;3.298;2024-02-21T11:21:03;9.63;;;4.07;;
61702;SDS011;47622;47.726;3.298;2024-02-21T11:23:32;10.63;;;4.50;;
61702;SDS011;47622;47.726;3.298;2024-02-21T11:26:07;7.65;;;4.22;;
61702;SDS011;47622;47.726;3.298;2024-02-21T11:28:34;8.50;;;4.65;;
61702;SDS011;47622;47.726;3.298;2024-02-21T11:31:11;9.85;;;4.38;;
61702;SDS011;47622;47.726;3.298;2024-02-21T11:33:41;8.85;;;4.70;;
61702;SDS011;47622;47.726;3.298;2024-02-21T11:36:10;11.38;;;4.60;;
61702;SDS011;47622;47.726;3.298;2024-02-21T11:38:36;7.70;;;3.92;;
61702;SDS011;47622;47.726;3.298;2024-02-21T11:41:02;10.13;;;3.90;;
61702;SDS011;47622;47.726;3.298;2024-02-21T11:43:27;9.85;;;4.03;;
61702;SDS011;47622;47.726;3.298;2024-02-21T11:46:00;9.85;;;4.07;;
61702;SDS011;47622;47.726;3.298;2024-02-21T11:48:26;7.07;;;3.60;;
61702;SDS011;47622;47.726;3.298;2024-02-21T11:50:55;8.38;;;3.80;;
61702;SDS011;47622;47.726;3.298;2024-02-21T11:53:23;9.38;;;3.80;;
61702;SDS011;47622;47.726;3.298;2024-02-21T11:55:49;10.25;;;3.42;;
61702;SDS011;47622;47.726;3.298;2024-02-21T11:58:15;7.85;;;3.40;;
61702;SDS011;47622;47.726;3.298;2024-02-21T12:00:41;5.82;;;3.25;;
61702;SDS011;47622;47.726;3.298;2024-02-21T12:03:07;9.02;;;3.83;;
61702;SDS011;47622;47.726;3.298;2024-02-21T12:05:33;10.48;;;3.42;;
61702;SDS011;47622;47.726;3.298;2024-02-21T12:07:59;12.48;;;3.50;;
61702;SDS011;47622;47.726;3.298;2024-02-21T12:10:25;6.88;;;3.67;;
61702;SDS011;47622;47.726;3.298;2024-02-21T12:13:05;8.55;;;3.42;;
61702;SDS011;47622;47.726;3.298;2024-02-21T12:15:33;8.00;;;3.85;;
61702;SDS011;47622;47.726;3.298;2024-02-21T12:17:59;7.57;;;3.65;;
61702;SDS011;47622;47.726;3.298;2024-02-21T12:20:25;8.95;;;3.85;;
61702;SDS011;47622;47.726;3.298;2024-02-21T12:22:51;8.18;;;4.07;;
61702;SDS011;47622;47.726;3.298;2024-02-21T12:25:18;8.43;;;3.75;;
61702;SDS011;47622;47.726;3.298;2024-02-21T12:27:47;10.43;;;3.75;;
61702;SDS011;47622;47.726;3.298;2024-02-21T12:30:14;7.05;;;3.40;;
61702;SDS011;47622;47.726;3.298;2024-02-21T12:32:40;10.38;;;3.63;;
61702;SDS011;47622;47.726;3.298;2024-02-21T12:35:06;17.08;;;4.55;;
61702;SDS011;47622;47.726;3.298;2024-02-21T12:37:32;8.93;;;3.85;;
61702;SDS011;47622;47.726;3.298;2024-02-21T12:39:58;4.80;;;3.28;;
61702;SDS011;47622;47.726;3.298;2024-02-21T12:42:24;5.22;;;3.05;;
61702;SDS011;47622;47.726;3.298;2024-02-21T12:44:51;8.77;;;3.05;;
61702;SDS011;47622;47.726;3.298;2024-02-21T12:47:19;9.15;;;2.80;;
61702;SDS011;47622;47.726;3.298;2024-02-21T12:49:48;8.60;;;3.08;;
61702;SDS011;47622;47.726;3.298;2024-02-21T12:52:14;9.10;;;3.35;;
61702;SDS011;47622;47.726;3.298;2024-02-21T12:54:40;7.03;;;3.05;;
61702;SDS011;47622;47.726;3.298;2024-02-21T12:57:05;6.88;;;3.30;;
61702;SDS011;47622;47.726;3.298;2024-02-21T12:59:31;7.63;;;3.58;;
61702;SDS011;47622;47.726;3.298;2024-02-21T13:01:56;10.80;;;3.92;;
61702;SDS011;47622;47.726;3.298;2024-02-21T13:04:22;6.25;;;2.97;;
61702;SDS011;47622;47.726;3.298;2024-02-21T13:06:48;8.30;;;3.30;;
61702;SDS011;47622;47.726;3.298;2024-02-21T13:09:14;6.40;;;3.03;;
61702;SDS011;47622;47.726;3.298;2024-02-21T13:11:40;6.30;;;3.10;;
61702;SDS011;47622;47.726;3.298;2024-02-21T13:14:07;7.97;;;3.55;;
61702;SDS011;47622;47.726;3.298;2024-02-21T13:16:32;6.45;;;3.40;;
61702;SDS011;47622;47.726;3.298;2024-02-21T13:19:04;10.77;;;3.05;;
61702;SDS011;47622;47.726;3.298;2024-02-21T13:21:30;6.45;;;2.80;;
61702;SDS011;47622;47.726;3.298;2024-02-21T13:23:56;4.43;;;3.03;;
61702;SDS011;47622;47.726;3.298;2024-02-21T13:26:22;3.90;;;2.88;;
61702;SDS011;47622;47.726;3.298;2024-02-21T13:28:47;7.93;;;3.10;;
61702;SDS011;47622;47.726;3.298;2024-02-21T13:31:14;5.95;;;3.05;;
61702;SDS011;47622;47.726;3.298;2024-02-21T13:33:41;7.78;;;2.80;;
61702;SDS011;47622;47.726;3.298;2024-02-21T13:36:09;10.82;;;3.83;;
61702;SDS011;47622;47.726;3.298;2024-02-21T13:38:35;4.35;;;3.00;;
61702;SDS011;47622;47.726;3.298;2024-02-21T13:41:00;8.05;;;2.90;;
61702;SDS011;47622;47.726;3.298;2024-02-21T13:43:26;13.88;;;4.05;;
61702;SDS011;47622;47.726;3.298;2024-02-21T13:45:58;6.95;;;3.05;;
61702;SDS011;47622;47.726;3.298;2024-02-21T13:48:25;8.30;;;3.95;;
61702;SDS011;47622;47.726;3.298;2024-02-21T13:50:52;6.20;;;2.92;;
61702;SDS011;47622;47.726;3.298;2024-02-21T13:53:17;7.38;;;3.10;;
61702;SDS011;47622;47.726;3.298;2024-02-21T13:55:46;6.90;;;3.00;;
61702;SDS011;47622;47.726;3.298;2024-02-21T13:58:12;10.50;;;2.80;;
61702;SDS011;47622;47.726;3.298;2024-02-21T14:00:38;8.32;;;3.08;;
61702;SDS011;47622;47.726;3.298;2024-02-21T14:03:03;5.40;;;2.85;;
61702;SDS011;47622;47.726;3.298;2024-02-21T14:05:29;4.35;;;2.90;;
61702;SDS011;47622;47.726;3.298;2024-02-21T14:07:55;6.63;;;2.40;;
61702;SDS011;47622;47.726;3.298;2024-02-21T14:10:21;6.32;;;3.10;;
61702;SDS011;47622;47.726;3.298;2024-02-21T14:12:47;5.68;;;3.15;;
61702;SDS011;47622;47.726;3.298;2024-02-21T14:15:13;7.65;;;3.25;;
61702;SDS011;47622;47.726;3.298;2024-02-21T14:17:39;5.85;;;2.78;;
61702;SDS011;47622;47.726;3.298;2024-02-21T14:20:06;6.93;;;3.25;;
61702;SDS011;47622;47.726;3.298;2024-02-21T14:22:32;7.93;;;3.30;;
61702;SDS011;47622;47.726;3.298;2024-02-21T14:24:58;6.72;;;3.40;;
61702;SDS011;47622;47.726;3.298;2024-02-21T14:27:23;6.90;;;3.10;;
61702;SDS011;47622;47.726;3.298;2024-02-21T14:29:49;6.68;;;3.20;;
61702;SDS011;47622;47.726;3.298;2024-02-21T14:32:14;6.35;;;3.30;;
61702;SDS011;47622;47.726;3.298;2024-02-21T14:34:40;5.88;;;3.25;;
61702;SDS011;47622;47.726;3.298;2024-02-21T14:37:07;5.95;;;3.50;;
61702;SDS011;47622;47.726;3.298;2024-02-21T14:39:33;7.05;;;3.40;;
61702;SDS011;47622;47.726;3.298;2024-02-21T14:42:00;8.63;;;3.58;;